sensor_id;sensor_type;location;lat;lon;timestamp;temperature;humidity
14277;DHT22;7222;57.346;12.150;2022-09-21T00:00:22;4.50;99.90
14277;DHT22;7222;57.346;12.150;2022-09-21T00:02:49;4.50;99.90
14277;DHT22;7222;57.346;12.150;2022-09-21T00:05:17;4.40;99.90
14277;DHT22;7222;57.346;12.150;2022-09-21T00:07:44;4.40;99.90
14277;DHT22;7222;57.346;12.150;2022-09-21T00:10:11;4.40;99.90
14277;DHT22;7222;57.346;12.150;2022-09-21T00:12:38;4.30;99.90
14277;DHT22;7222;57.346;12.150;2022-09-21T00:15:06;4.30;99.90
14277;DHT22;7222;57.346;12.150;2022-09-21T00:17:34;4.30;99.90
14277;DHT22;7222;57.346;12.150;2022-09-21T00:20:01;4.20;99.90
14277;DHT22;7222;57.346;12.150;2022-09-21T00:22:31;4.20;99.90
14277;DHT22;7222;57.346;12.150;2022-09-21T00:24:58;4.20;99.90
14277;DHT22;7222;57.346;12.150;2022-09-21T00:27:28;4.10;99.90
14277;DHT22;7222;57.346;12.150;2022-09-21T00:29:55;4.10;99.90
14277;DHT22;7222;57.346;12.150;2022-09-21T00:32:22;4.10;99.90
14277;DHT22;7222;57.346;12.150;2022-09-21T00:34:50;4.00;99.90
14277;DHT22;7222;57.346;12.150;2022-09-21T00:37:18;4.00;99.90
14277;DHT22;7222;57.346;12.150;2022-09-21T00:39:47;4.00;99.90
14277;DHT22;7222;57.346;12.150;2022-09-21T00:42:16;3.90;99.90
14277;DHT22;7222;57.346;12.150;2022-09-21T00:44:44;3.90;99.90
14277;DHT22;7222;57.346;12.150;2022-09-21T00:47:12;3.90;99.90
14277;DHT22;7222;57.346;12.150;2022-09-21T00:49:40;3.80;99.90
14277;DHT22;7222;57.346;12.150;2022-09-21T00:52:09;3.80;99.90
14277;DHT22;7222;57.346;12.150;2022-09-21T00:54:40;3.80;99.90
14277;DHT22;7222;57.346;12.150;2022-09-21T00:57:10;3.70;99.90
14277;DHT22;7222;57.346;12.150;2022-09-21T00:59:38;3.70;99.90
14277;DHT22;7222;57.346;12.150;2022-09-21T01:02:07;3.70;99.90
14277;DHT22;7222;57.346;12.150;2022-09-21T01:04:34;3.60;99.90
14277;DHT22;7222;57.346;12.150;2022-09-21T01:07:04;3.60;99.90
14277;DHT22;7222;57.346;12.150;2022-09-21T01:09:32;3.60;99.90
14277;DHT22;7222;57.346;12.150;2022-09-21T01:12:12;3.50;99.90
14277;DHT22;7222;57.346;12.150;2022-09-21T01:14:56;3.50;99.90
14277;DHT22;7222;57.346;12.150;2022-09-21T01:17:33;3.50;99.90
14277;DHT22;7222;57.346;12.150;2022-09-21T01:20:21;3.50;99.90
14277;DHT22;7222;57.346;12.150;2022-09-21T01:25:51;3.40;99.90
14277;DHT22;7222;57.346;12.150;2022-09-21T01:28:34;3.40;99.90
14277;DHT22;7222;57.346;12.150;2022-09-21T01:31:12;3.30;99.90
14277;DHT22;7222;57.346;12.150;2022-09-21T01:36:17;3.30;99.90
14277;DHT22;7222;57.346;12.150;2022-09-21T01:38:48;3.30;99.90
14277;DHT22;7222;57.346;12.150;2022-09-21T01:41:18;3.20;99.90
14277;DHT22;7222;57.346;12.150;2022-09-21T01:43:50;3.20;99.90
14277;DHT22;7222;57.346;12.150;2022-09-21T01:46:23;3.20;99.90
14277;DHT22;7222;57.346;12.150;2022-09-21T01:48:53;3.20;99.90
14277;DHT22;7222;57.346;12.150;2022-09-21T01:51:26;3.20;99.90
14277;DHT22;7222;57.346;12.150;2022-09-21T01:53:57;3.20;99.90
14277;DHT22;7222;57.346;12.150;2022-09-21T01:56:29;3.10;99.90
14277;DHT22;7222;57.346;12.150;2022-09-21T01:59:05;3.10;99.90
14277;DHT22;7222;57.346;12.150;2022-09-21T02:01:40;3.10;99.90
14277;DHT22;7222;57.346;12.150;2022-09-21T02:04:12;3.10;99.90
14277;DHT22;7222;57.346;12.150;2022-09-21T02:06:41;3.00;99.90
14277;DHT22;7222;57.346;12.150;2022-09-21T02:09:09;3.00;99.90
14277;DHT22;7222;57.346;12.150;2022-09-21T02:11:37;2.90;99.90
14277;DHT22;7222;57.346;12.150;2022-09-21T02:14:09;3.00;99.90
14277;DHT22;7222;57.346;12.150;2022-09-21T02:16:40;3.00;99.90
14277;DHT22;7222;57.346;12.150;2022-09-21T02:19:13;3.00;99.90
14277;DHT22;7222;57.346;12.150;2022-09-21T02:21:54;3.00;99.90
14277;DHT22;7222;57.346;12.150;2022-09-21T02:24:31;2.90;99.90
14277;DHT22;7222;57.346;12.150;2022-09-21T02:27:03;2.90;99.90
14277;DHT22;7222;57.346;12.150;2022-09-21T02:29:37;3.10;99.90
14277;DHT22;7222;57.346;12.150;2022-09-21T02:32:13;2.80;99.90
14277;DHT22;7222;57.346;12.150;2022-09-21T02:34:45;2.70;99.90
14277;DHT22;7222;57.346;12.150;2022-09-21T02:37:20;2.70;99.90
14277;DHT22;7222;57.346;12.150;2022-09-21T02:39:54;2.70;99.90
14277;DHT22;7222;57.346;12.150;2022-09-21T02:42:27;2.60;99.90
14277;DHT22;7222;57.346;12.150;2022-09-21T02:44:58;2.60;99.90
14277;DHT22;7222;57.346;12.150;2022-09-21T02:47:33;2.60;99.90
14277;DHT22;7222;57.346;12.150;2022-09-21T02:50:04;2.60;99.90
14277;DHT22;7222;57.346;12.150;2022-09-21T02:52:33;2.60;99.90
14277;DHT22;7222;57.346;12.150;2022-09-21T02:55:03;2.60;99.90
14277;DHT22;7222;57.346;12.150;2022-09-21T02:57:30;2.50;99.90
14277;DHT22;7222;57.346;12.150;2022-09-21T02:59:57;2.50;99.90
14277;DHT22;7222;57.346;12.150;2022-09-21T03:02:36;2.50;99.90
14277;DHT22;7222;57.346;12.150;2022-09-21T03:05:05;2.40;99.90
14277;DHT22;7222;57.346;12.150;2022-09-21T03:07:32;2.40;99.90
14277;DHT22;7222;57.346;12.150;2022-09-21T03:09:59;2.40;99.90
14277;DHT22;7222;57.346;12.150;2022-09-21T03:12:26;2.40;99.90
14277;DHT22;7222;57.346;12.150;2022-09-21T03:14:53;2.30;99.90
14277;DHT22;7222;57.346;12.150;2022-09-21T03:17:20;2.30;99.90
14277;DHT22;7222;57.346;12.150;2022-09-21T03:19:49;2.30;99.90
14277;DHT22;7222;57.346;12.150;2022-09-21T03:22:17;2.30;99.90
14277;DHT22;7222;57.346;12.150;2022-09-21T03:24:45;2.30;99.90
14277;DHT22;7222;57.346;12.150;2022-09-21T03:27:13;2.20;99.90
14277;DHT22;7222;57.346;12.150;2022-09-21T03:29:40;2.20;99.90
14277;DHT22;7222;57.346;12.150;2022-09-21T03:32:08;2.20;99.90
14277;DHT22;7222;57.346;12.150;2022-09-21T03:34:35;2.20;99.90
14277;DHT22;7222;57.346;12.150;2022-09-21T03:37:05;2.10;99.90
14277;DHT22;7222;57.346;12.150;2022-09-21T03:39:32;2.10;99.90
14277;DHT22;7222;57.346;12.150;2022-09-21T03:42:00;2.10;99.90
14277;DHT22;7222;57.346;12.150;2022-09-21T03:44:28;2.10;99.90
14277;DHT22;7222;57.346;12.150;2022-09-21T03:46:55;2.10;99.90
14277;DHT22;7222;57.346;12.150;2022-09-21T03:49:22;2.00;99.90
14277;DHT22;7222;57.346;12.150;2022-09-21T03:51:49;2.00;99.90
14277;DHT22;7222;57.346;12.150;2022-09-21T03:54:17;2.00;99.90
14277;DHT22;7222;57.346;12.150;2022-09-21T03:56:45;2.00;99.90
14277;DHT22;7222;57.346;12.150;2022-09-21T03:59:12;2.00;99.90
14277;DHT22;7222;57.346;12.150;2022-09-21T04:01:39;1.90;99.90
14277;DHT22;7222;57.346;12.150;2022-09-21T04:04:06;1.90;99.90
14277;DHT22;7222;57.346;12.150;2022-09-21T04:06:33;1.90;99.90
14277;DHT22;7222;57.346;12.150;2022-09-21T04:09:00;1.90;99.90
14277;DHT22;7222;57.346;12.150;2022-09-21T04:11:29;1.90;99.90
14277;DHT22;7222;57.346;12.150;2022-09-21T04:13:57;1.90;99.90
14277;DHT22;7222;57.346;12.150;2022-09-21T04:16:25;1.90;99.90
14277;DHT22;7222;57.346;12.150;2022-09-21T04:18:52;1.80;99.90
14277;DHT22;7222;57.346;12.150;2022-09-21T04:21:20;1.80;99.90
14277;DHT22;7222;57.346;12.150;2022-09-21T04:23:47;1.80;99.90
14277;DHT22;7222;57.346;12.150;2022-09-21T04:26:19;1.80;99.90
14277;DHT22;7222;57.346;12.150;2022-09-21T04:28:49;1.80;99.90
14277;DHT22;7222;57.346;12.150;2022-09-21T04:31:16;1.70;99.90
14277;DHT22;7222;57.346;12.150;2022-09-21T04:33:46;1.70;99.90
14277;DHT22;7222;57.346;12.150;2022-09-21T04:36:13;1.70;99.90
14277;DHT22;7222;57.346;12.150;2022-09-21T04:38:39;1.70;99.90
14277;DHT22;7222;57.346;12.150;2022-09-21T04:41:06;1.70;99.90
14277;DHT22;7222;57.346;12.150;2022-09-21T04:43:33;1.70;99.90
14277;DHT22;7222;57.346;12.150;2022-09-21T04:46:05;1.70;99.90
14277;DHT22;7222;57.346;12.150;2022-09-21T04:48:33;1.70;99.90
14277;DHT22;7222;57.346;12.150;2022-09-21T04:51:00;1.70;99.90
14277;DHT22;7222;57.346;12.150;2022-09-21T04:53:27;1.70;99.90
14277;DHT22;7222;57.346;12.150;2022-09-21T04:55:54;1.70;99.90
14277;DHT22;7222;57.346;12.150;2022-09-21T04:58:21;1.70;99.90
14277;DHT22;7222;57.346;12.150;2022-09-21T05:00:49;1.70;99.90
14277;DHT22;7222;57.346;12.150;2022-09-21T05:03:18;1.70;99.90
14277;DHT22;7222;57.346;12.150;2022-09-21T05:05:46;1.60;99.90
14277;DHT22;7222;57.346;12.150;2022-09-21T05:08:13;1.60;99.90
14277;DHT22;7222;57.346;12.150;2022-09-21T05:10:40;1.70;99.90
14277;DHT22;7222;57.346;12.150;2022-09-21T05:13:06;1.60;99.90
14277;DHT22;7222;57.346;12.150;2022-09-21T05:15:35;1.60;99.90
14277;DHT22;7222;57.346;12.150;2022-09-21T05:18:02;1.60;99.90
14277;DHT22;7222;57.346;12.150;2022-09-21T05:20:31;1.60;99.90
14277;DHT22;7222;57.346;12.150;2022-09-21T05:22:59;1.60;99.90
14277;DHT22;7222;57.346;12.150;2022-09-21T05:25:27;1.60;99.90
14277;DHT22;7222;57.346;12.150;2022-09-21T05:27:54;1.60;99.90
14277;DHT22;7222;57.346;12.150;2022-09-21T05:30:22;2.10;99.90
14277;DHT22;7222;57.346;12.150;2022-09-21T05:32:55;2.50;99.90
14277;DHT22;7222;57.346;12.150;2022-09-21T05:35:31;2.70;99.90
14277;DHT22;7222;57.346;12.150;2022-09-21T05:38:07;2.50;99.90
14277;DHT22;7222;57.346;12.150;2022-09-21T05:40:36;2.30;99.90
14277;DHT22;7222;57.346;12.150;2022-09-21T05:43:04;2.20;99.90
14277;DHT22;7222;57.346;12.150;2022-09-21T05:45:31;1.90;99.90
14277;DHT22;7222;57.346;12.150;2022-09-21T05:48:06;1.70;99.90
14277;DHT22;7222;57.346;12.150;2022-09-21T05:50:54;1.70;99.90
14277;DHT22;7222;57.346;12.150;2022-09-21T05:53:39;1.90;99.90
14277;DHT22;7222;57.346;12.150;2022-09-21T05:56:19;2.30;99.90
14277;DHT22;7222;57.346;12.150;2022-09-21T05:58:55;2.40;99.90
14277;DHT22;7222;57.346;12.150;2022-09-21T06:01:35;2.20;99.90
14277;DHT22;7222;57.346;12.150;2022-09-21T06:04:07;2.20;99.90
14277;DHT22;7222;57.346;12.150;2022-09-21T06:06:37;2.30;99.90
14277;DHT22;7222;57.346;12.150;2022-09-21T06:09:04;2.30;99.90
14277;DHT22;7222;57.346;12.150;2022-09-21T06:11:31;2.20;99.90
14277;DHT22;7222;57.346;12.150;2022-09-21T06:13:59;1.90;99.90
14277;DHT22;7222;57.346;12.150;2022-09-21T06:16:27;2.00;99.90
14277;DHT22;7222;57.346;12.150;2022-09-21T06:19:01;2.10;99.90
14277;DHT22;7222;57.346;12.150;2022-09-21T06:21:28;2.60;99.90
14277;DHT22;7222;57.346;12.150;2022-09-21T06:23:57;2.90;99.90
14277;DHT22;7222;57.346;12.150;2022-09-21T06:26:24;3.00;99.90
14277;DHT22;7222;57.346;12.150;2022-09-21T06:28:52;3.00;99.90
14277;DHT22;7222;57.346;12.150;2022-09-21T06:31:19;3.30;99.90
14277;DHT22;7222;57.346;12.150;2022-09-21T06:33:47;3.60;99.90
14277;DHT22;7222;57.346;12.150;2022-09-21T06:36:14;3.80;99.90
14277;DHT22;7222;57.346;12.150;2022-09-21T06:38:41;3.90;99.90
14277;DHT22;7222;57.346;12.150;2022-09-21T06:41:10;4.60;99.90
14277;DHT22;7222;57.346;12.150;2022-09-21T06:43:37;4.90;99.90
14277;DHT22;7222;57.346;12.150;2022-09-21T06:46:04;4.90;99.90
14277;DHT22;7222;57.346;12.150;2022-09-21T06:48:32;4.90;99.90
14277;DHT22;7222;57.346;12.150;2022-09-21T06:51:00;5.00;99.90
14277;DHT22;7222;57.346;12.150;2022-09-21T06:53:28;5.10;99.90
14277;DHT22;7222;57.346;12.150;2022-09-21T06:55:59;5.40;99.90
14277;DHT22;7222;57.346;12.150;2022-09-21T06:58:28;5.60;99.90
14277;DHT22;7222;57.346;12.150;2022-09-21T07:00:55;5.90;99.90
14277;DHT22;7222;57.346;12.150;2022-09-21T07:03:22;6.10;99.90
14277;DHT22;7222;57.346;12.150;2022-09-21T07:05:49;6.30;99.90
14277;DHT22;7222;57.346;12.150;2022-09-21T07:08:16;6.50;99.90
14277;DHT22;7222;57.346;12.150;2022-09-21T07:10:43;6.70;99.90
14277;DHT22;7222;57.346;12.150;2022-09-21T07:13:10;6.90;99.90
14277;DHT22;7222;57.346;12.150;2022-09-21T07:15:39;7.20;99.90
14277;DHT22;7222;57.346;12.150;2022-09-21T07:18:10;7.40;99.90
14277;DHT22;7222;57.346;12.150;2022-09-21T07:20:37;7.50;99.90
14277;DHT22;7222;57.346;12.150;2022-09-21T07:23:09;7.70;99.90
14277;DHT22;7222;57.346;12.150;2022-09-21T07:25:36;7.80;99.90
14277;DHT22;7222;57.346;12.150;2022-09-21T07:28:04;7.90;99.90
14277;DHT22;7222;57.346;12.150;2022-09-21T07:30:31;8.20;99.90
14277;DHT22;7222;57.346;12.150;2022-09-21T07:32:59;8.30;99.90
14277;DHT22;7222;57.346;12.150;2022-09-21T07:35:26;8.40;99.90
14277;DHT22;7222;57.346;12.150;2022-09-21T07:37:53;8.40;99.90
14277;DHT22;7222;57.346;12.150;2022-09-21T07:40:23;8.60;99.90
14277;DHT22;7222;57.346;12.150;2022-09-21T07:42:50;8.60;99.90
14277;DHT22;7222;57.346;12.150;2022-09-21T07:45:17;8.80;99.90
14277;DHT22;7222;57.346;12.150;2022-09-21T07:47:44;9.00;99.90
14277;DHT22;7222;57.346;12.150;2022-09-21T07:50:13;9.00;99.90
14277;DHT22;7222;57.346;12.150;2022-09-21T07:52:40;9.10;99.90
14277;DHT22;7222;57.346;12.150;2022-09-21T07:55:07;9.20;99.90
14277;DHT22;7222;57.346;12.150;2022-09-21T07:57:34;9.40;99.90
14277;DHT22;7222;57.346;12.150;2022-09-21T08:00:18;9.50;99.90
14277;DHT22;7222;57.346;12.150;2022-09-21T08:02:45;9.70;99.90
14277;DHT22;7222;57.346;12.150;2022-09-21T08:05:14;9.90;99.90
14277;DHT22;7222;57.346;12.150;2022-09-21T08:07:41;10.20;99.90
14277;DHT22;7222;57.346;12.150;2022-09-21T08:10:08;10.40;99.90
14277;DHT22;7222;57.346;12.150;2022-09-21T08:12:35;10.70;99.90
14277;DHT22;7222;57.346;12.150;2022-09-21T08:15:03;10.80;99.90
14277;DHT22;7222;57.346;12.150;2022-09-21T08:17:30;11.10;99.90
14277;DHT22;7222;57.346;12.150;2022-09-21T08:19:57;11.30;99.90
14277;DHT22;7222;57.346;12.150;2022-09-21T08:22:25;11.30;99.90
14277;DHT22;7222;57.346;12.150;2022-09-21T08:24:52;11.50;99.90
14277;DHT22;7222;57.346;12.150;2022-09-21T08:27:20;11.50;99.90
14277;DHT22;7222;57.346;12.150;2022-09-21T08:29:47;11.80;99.90
14277;DHT22;7222;57.346;12.150;2022-09-21T08:32:14;12.00;99.90
14277;DHT22;7222;57.346;12.150;2022-09-21T08:34:41;12.20;99.90
14277;DHT22;7222;57.346;12.150;2022-09-21T08:37:08;12.20;99.90
14277;DHT22;7222;57.346;12.150;2022-09-21T08:39:37;12.30;99.90
14277;DHT22;7222;57.346;12.150;2022-09-21T08:42:12;12.40;99.90
14277;DHT22;7222;57.346;12.150;2022-09-21T08:44:43;12.40;99.90
14277;DHT22;7222;57.346;12.150;2022-09-21T08:47:16;12.30;99.90
14277;DHT22;7222;57.346;12.150;2022-09-21T08:49:48;12.50;99.90
14277;DHT22;7222;57.346;12.150;2022-09-21T08:52:19;12.70;99.90
14277;DHT22;7222;57.346;12.150;2022-09-21T08:54:54;12.80;99.90
14277;DHT22;7222;57.346;12.150;2022-09-21T08:57:27;12.80;99.90
14277;DHT22;7222;57.346;12.150;2022-09-21T08:59:55;12.90;99.90
14277;DHT22;7222;57.346;12.150;2022-09-21T09:02:44;13.10;99.90
14277;DHT22;7222;57.346;12.150;2022-09-21T09:05:26;13.30;99.90
14277;DHT22;7222;57.346;12.150;2022-09-21T09:08:17;13.50;99.90
14277;DHT22;7222;57.346;12.150;2022-09-21T09:10:55;13.40;99.90
14277;DHT22;7222;57.346;12.150;2022-09-21T09:13:39;13.50;99.90
14277;DHT22;7222;57.346;12.150;2022-09-21T09:16:18;13.80;99.90
14277;DHT22;7222;57.346;12.150;2022-09-21T09:18:52;14.30;99.90
14277;DHT22;7222;57.346;12.150;2022-09-21T09:21:23;14.30;99.90
14277;DHT22;7222;57.346;12.150;2022-09-21T09:23:53;14.60;99.90
14277;DHT22;7222;57.346;12.150;2022-09-21T09:26:31;14.90;99.90
14277;DHT22;7222;57.346;12.150;2022-09-21T09:29:02;15.10;99.90
14277;DHT22;7222;57.346;12.150;2022-09-21T09:31:31;14.90;99.90
14277;DHT22;7222;57.346;12.150;2022-09-21T09:34:04;15.20;99.90
14277;DHT22;7222;57.346;12.150;2022-09-21T09:36:36;15.30;99.90
14277;DHT22;7222;57.346;12.150;2022-09-21T09:39:09;15.50;99.90
14277;DHT22;7222;57.346;12.150;2022-09-21T09:44:57;15.80;99.90
14277;DHT22;7222;57.346;12.150;2022-09-21T09:47:39;16.00;99.90
14277;DHT22;7222;57.346;12.150;2022-09-21T09:50:11;16.10;99.90
14277;DHT22;7222;57.346;12.150;2022-09-21T09:52:40;15.90;99.90
14277;DHT22;7222;57.346;12.150;2022-09-21T09:55:16;16.30;99.90
14277;DHT22;7222;57.346;12.150;2022-09-21T09:57:47;16.40;99.90
14277;DHT22;7222;57.346;12.150;2022-09-21T10:00:17;16.70;99.90
14277;DHT22;7222;57.346;12.150;2022-09-21T10:02:46;16.70;99.90
14277;DHT22;7222;57.346;12.150;2022-09-21T10:05:20;16.70;99.90
14277;DHT22;7222;57.346;12.150;2022-09-21T10:07:48;16.80;99.90
14277;DHT22;7222;57.346;12.150;2022-09-21T10:10:33;16.50;99.90
14277;DHT22;7222;57.346;12.150;2022-09-21T10:13:11;16.40;99.90
14277;DHT22;7222;57.346;12.150;2022-09-21T10:15:42;16.30;99.90
14277;DHT22;7222;57.346;12.150;2022-09-21T10:18:17;16.80;99.90
14277;DHT22;7222;57.346;12.150;2022-09-21T10:20:56;16.80;99.90
14277;DHT22;7222;57.346;12.150;2022-09-21T10:23:25;16.80;99.90
14277;DHT22;7222;57.346;12.150;2022-09-21T10:25:57;17.60;99.90
14277;DHT22;7222;57.346;12.150;2022-09-21T10:28:26;17.40;99.90
14277;DHT22;7222;57.346;12.150;2022-09-21T10:31:18;17.80;99.90
14277;DHT22;7222;57.346;12.150;2022-09-21T10:33:51;17.80;99.90
14277;DHT22;7222;57.346;12.150;2022-09-21T10:36:30;18.00;99.90
14277;DHT22;7222;57.346;12.150;2022-09-21T10:39:15;18.40;99.90
14277;DHT22;7222;57.346;12.150;2022-09-21T10:41:47;16.90;99.90
14277;DHT22;7222;57.346;12.150;2022-09-21T10:44:18;16.80;99.90
14277;DHT22;7222;57.346;12.150;2022-09-21T10:46:46;17.40;99.90
14277;DHT22;7222;57.346;12.150;2022-09-21T10:49:19;17.90;99.90
14277;DHT22;7222;57.346;12.150;2022-09-21T10:52:01;18.30;99.90
14277;DHT22;7222;57.346;12.150;2022-09-21T10:54:30;18.40;99.90
14277;DHT22;7222;57.346;12.150;2022-09-21T10:57:01;18.90;99.90
14277;DHT22;7222;57.346;12.150;2022-09-21T10:59:31;18.80;99.90
14277;DHT22;7222;57.346;12.150;2022-09-21T11:02:00;19.10;99.90
14277;DHT22;7222;57.346;12.150;2022-09-21T11:04:33;19.80;99.90
14277;DHT22;7222;57.346;12.150;2022-09-21T11:07:12;19.90;99.90
14277;DHT22;7222;57.346;12.150;2022-09-21T11:09:44;20.00;99.90
14277;DHT22;7222;57.346;12.150;2022-09-21T11:12:32;20.00;99.90
14277;DHT22;7222;57.346;12.150;2022-09-21T11:15:09;21.30;99.90
14277;DHT22;7222;57.346;12.150;2022-09-21T11:17:41;21.60;99.90
14277;DHT22;7222;57.346;12.150;2022-09-21T11:20:19;22.20;99.90
14277;DHT22;7222;57.346;12.150;2022-09-21T11:22:53;23.10;99.90
14277;DHT22;7222;57.346;12.150;2022-09-21T11:25:30;23.30;99.90
14277;DHT22;7222;57.346;12.150;2022-09-21T11:28:03;22.20;99.90
14277;DHT22;7222;57.346;12.150;2022-09-21T11:33:36;22.10;99.90
14277;DHT22;7222;57.346;12.150;2022-09-21T11:36:12;21.20;99.90
14277;DHT22;7222;57.346;12.150;2022-09-21T11:38:53;21.60;99.90
14277;DHT22;7222;57.346;12.150;2022-09-21T11:41:57;21.90;99.90
14277;DHT22;7222;57.346;12.150;2022-09-21T11:44:43;22.40;99.90
14277;DHT22;7222;57.346;12.150;2022-09-21T11:47:36;22.40;99.90
14277;DHT22;7222;57.346;12.150;2022-09-21T11:50:30;22.60;99.90
14277;DHT22;7222;57.346;12.150;2022-09-21T11:53:16;22.20;99.90
14277;DHT22;7222;57.346;12.150;2022-09-21T11:56:01;22.40;99.90
14277;DHT22;7222;57.346;12.150;2022-09-21T11:58:38;23.20;99.90
14277;DHT22;7222;57.346;12.150;2022-09-21T12:01:15;22.80;99.90
14277;DHT22;7222;57.346;12.150;2022-09-21T12:04:04;23.00;99.90
14277;DHT22;7222;57.346;12.150;2022-09-21T12:06:48;23.80;99.90
14277;DHT22;7222;57.346;12.150;2022-09-21T12:09:33;23.60;99.90
14277;DHT22;7222;57.346;12.150;2022-09-21T12:12:07;23.60;99.90
14277;DHT22;7222;57.346;12.150;2022-09-21T12:14:41;22.50;99.90
14277;DHT22;7222;57.346;12.150;2022-09-21T12:17:14;21.60;99.90
14277;DHT22;7222;57.346;12.150;2022-09-21T12:19:53;20.60;99.90
14277;DHT22;7222;57.346;12.150;2022-09-21T12:22:27;19.60;99.90
14277;DHT22;7222;57.346;12.150;2022-09-21T12:24:57;20.60;99.90
14277;DHT22;7222;57.346;12.150;2022-09-21T12:27:30;19.80;99.90
14277;DHT22;7222;57.346;12.150;2022-09-21T12:30:01;20.40;99.90
14277;DHT22;7222;57.346;12.150;2022-09-21T12:32:41;19.90;99.90
14277;DHT22;7222;57.346;12.150;2022-09-21T12:35:18;20.80;99.90
14277;DHT22;7222;57.346;12.150;2022-09-21T12:37:50;21.60;99.90
14277;DHT22;7222;57.346;12.150;2022-09-21T12:40:22;21.90;99.90
14277;DHT22;7222;57.346;12.150;2022-09-21T12:42:59;19.80;99.90
14277;DHT22;7222;57.346;12.150;2022-09-21T12:45:31;19.40;99.90
14277;DHT22;7222;57.346;12.150;2022-09-21T12:48:10;19.50;99.90
14277;DHT22;7222;57.346;12.150;2022-09-21T12:50:43;18.70;99.90
14277;DHT22;7222;57.346;12.150;2022-09-21T12:53:15;18.90;99.90
14277;DHT22;7222;57.346;12.150;2022-09-21T12:55:49;19.50;99.90
14277;DHT22;7222;57.346;12.150;2022-09-21T12:58:47;19.50;99.90
14277;DHT22;7222;57.346;12.150;2022-09-21T13:01:26;19.80;99.90
14277;DHT22;7222;57.346;12.150;2022-09-21T13:04:16;21.40;99.90
14277;DHT22;7222;57.346;12.150;2022-09-21T13:07:19;22.40;99.90
14277;DHT22;7222;57.346;12.150;2022-09-21T13:09:50;22.70;99.90
14277;DHT22;7222;57.346;12.150;2022-09-21T13:12:20;22.60;99.90
14277;DHT22;7222;57.346;12.150;2022-09-21T13:14:58;22.30;99.90
14277;DHT22;7222;57.346;12.150;2022-09-21T13:17:30;21.50;99.90
14277;DHT22;7222;57.346;12.150;2022-09-21T13:20:00;21.50;99.90
14277;DHT22;7222;57.346;12.150;2022-09-21T13:22:31;22.40;99.90
14277;DHT22;7222;57.346;12.150;2022-09-21T13:25:03;22.60;99.90
14277;DHT22;7222;57.346;12.150;2022-09-21T13:27:56;23.20;99.90
14277;DHT22;7222;57.346;12.150;2022-09-21T13:30:43;23.10;99.90
14277;DHT22;7222;57.346;12.150;2022-09-21T13:33:32;22.80;99.90
14277;DHT22;7222;57.346;12.150;2022-09-21T13:36:10;21.90;99.90
14277;DHT22;7222;57.346;12.150;2022-09-21T13:39:17;21.40;99.90
14277;DHT22;7222;57.346;12.150;2022-09-21T13:41:45;20.80;99.90
14277;DHT22;7222;57.346;12.150;2022-09-21T13:44:21;20.50;99.90
14277;DHT22;7222;57.346;12.150;2022-09-21T13:47:02;19.90;99.90
14277;DHT22;7222;57.346;12.150;2022-09-21T13:49:37;20.20;99.90
14277;DHT22;7222;57.346;12.150;2022-09-21T13:52:18;19.50;99.90
14277;DHT22;7222;57.346;12.150;2022-09-21T13:54:51;19.40;99.90
14277;DHT22;7222;57.346;12.150;2022-09-21T13:57:23;20.40;99.90
14277;DHT22;7222;57.346;12.150;2022-09-21T14:00:07;20.30;99.90
14277;DHT22;7222;57.346;12.150;2022-09-21T14:02:37;19.00;99.90
14277;DHT22;7222;57.346;12.150;2022-09-21T14:05:08;18.80;99.90
14277;DHT22;7222;57.346;12.150;2022-09-21T14:07:44;19.70;99.90
14277;DHT22;7222;57.346;12.150;2022-09-21T14:10:18;20.80;99.90
14277;DHT22;7222;57.346;12.150;2022-09-21T14:12:47;21.40;99.90
14277;DHT22;7222;57.346;12.150;2022-09-21T14:15:42;21.60;99.90
14277;DHT22;7222;57.346;12.150;2022-09-21T14:18:34;22.00;99.90
14277;DHT22;7222;57.346;12.150;2022-09-21T14:21:13;21.70;99.90
14277;DHT22;7222;57.346;12.150;2022-09-21T14:24:16;21.60;99.90
14277;DHT22;7222;57.346;12.150;2022-09-21T14:26:50;21.70;88.40
14277;DHT22;7222;57.346;12.150;2022-09-21T14:29:22;21.80;99.90
14277;DHT22;7222;57.346;12.150;2022-09-21T14:31:54;21.10;1.00
14277;DHT22;7222;57.346;12.150;2022-09-21T14:34:25;19.30;1.00
14277;DHT22;7222;57.346;12.150;2022-09-21T14:36:56;19.20;28.50
14277;DHT22;7222;57.346;12.150;2022-09-21T14:39:34;19.70;99.90
14277;DHT22;7222;57.346;12.150;2022-09-21T14:42:08;20.00;99.90
14277;DHT22;7222;57.346;12.150;2022-09-21T14:44:38;19.90;1.00
14277;DHT22;7222;57.346;12.150;2022-09-21T14:47:32;20.80;1.00
14277;DHT22;7222;57.346;12.150;2022-09-21T14:50:15;20.80;99.90
14277;DHT22;7222;57.346;12.150;2022-09-21T14:53:05;20.50;99.90
14277;DHT22;7222;57.346;12.150;2022-09-21T14:55:57;20.50;99.90
14277;DHT22;7222;57.346;12.150;2022-09-21T14:58:39;20.00;1.00
14277;DHT22;7222;57.346;12.150;2022-09-21T15:01:21;20.20;99.90
14277;DHT22;7222;57.346;12.150;2022-09-21T15:07:01;19.60;1.00
14277;DHT22;7222;57.346;12.150;2022-09-21T15:13:14;18.40;99.90
14277;DHT22;7222;57.346;12.150;2022-09-21T15:15:57;18.30;99.90
14277;DHT22;7222;57.346;12.150;2022-09-21T15:18:26;17.50;99.90
14277;DHT22;7222;57.346;12.150;2022-09-21T15:20:56;17.10;1.00
14277;DHT22;7222;57.346;12.150;2022-09-21T15:23:27;17.50;28.60
14277;DHT22;7222;57.346;12.150;2022-09-21T15:25:57;17.10;99.90
14277;DHT22;7222;57.346;12.150;2022-09-21T15:28:32;16.60;10.10
14277;DHT22;7222;57.346;12.150;2022-09-21T15:31:02;15.90;99.90
14277;DHT22;7222;57.346;12.150;2022-09-21T15:33:30;15.60;99.90
14277;DHT22;7222;57.346;12.150;2022-09-21T15:36:00;15.90;99.90
14277;DHT22;7222;57.346;12.150;2022-09-21T15:38:29;16.10;99.90
14277;DHT22;7222;57.346;12.150;2022-09-21T15:41:01;16.00;99.90
14277;DHT22;7222;57.346;12.150;2022-09-21T15:43:32;16.60;99.90
14277;DHT22;7222;57.346;12.150;2022-09-21T15:46:04;15.80;99.90
14277;DHT22;7222;57.346;12.150;2022-09-21T15:48:33;16.30;99.90
14277;DHT22;7222;57.346;12.150;2022-09-21T15:51:09;16.50;99.90
14277;DHT22;7222;57.346;12.150;2022-09-21T15:53:42;16.30;99.90
14277;DHT22;7222;57.346;12.150;2022-09-21T15:56:18;16.00;99.90
14277;DHT22;7222;57.346;12.150;2022-09-21T15:58:46;16.40;99.90
14277;DHT22;7222;57.346;12.150;2022-09-21T16:01:19;15.90;99.90
14277;DHT22;7222;57.346;12.150;2022-09-21T16:04:00;16.00;99.90
14277;DHT22;7222;57.346;12.150;2022-09-21T16:06:35;16.30;99.90
14277;DHT22;7222;57.346;12.150;2022-09-21T16:09:37;16.10;99.90
14277;DHT22;7222;57.346;12.150;2022-09-21T16:12:32;16.30;99.90
14277;DHT22;7222;57.346;12.150;2022-09-21T16:15:04;16.20;99.90
14277;DHT22;7222;57.346;12.150;2022-09-21T16:17:36;15.80;99.90
14277;DHT22;7222;57.346;12.150;2022-09-21T16:20:19;15.50;99.90
14277;DHT22;7222;57.346;12.150;2022-09-21T16:22:50;15.70;99.90
14277;DHT22;7222;57.346;12.150;2022-09-21T16:25:27;15.30;99.90
14277;DHT22;7222;57.346;12.150;2022-09-21T16:27:59;15.50;99.90
14277;DHT22;7222;57.346;12.150;2022-09-21T16:30:47;15.50;99.90
14277;DHT22;7222;57.346;12.150;2022-09-21T16:33:41;15.00;99.90